TimeEST,TemperatureF,Dew PointF,Humidity,Sea Level PressureIn,VisibilityMPH,Wind Direction,Wind SpeedMPH,Gust SpeedMPH,PrecipitationIn,Events,Conditions,WindDirDegrees,DateUTC
12:53 AM,64.9,64.9,100,30.04,10.0,NW,4.6,-,N/A,,Clear,310,2013-01-22 05:53:00
1:53 AM,64.0,64.0,100,30.02,10.0,WNW,5.8,-,N/A,,Clear,300,2013-01-22 06:53:00
2:53 AM,64.0,64.0,100,30.02,9.0,WNW,6.9,-,N/A,,Clear,300,2013-01-22 07:53:00
3:40 AM,64.4,64.4,100,30.02,9.0,WNW,8.1,-,N/A,,Mostly Cloudy,300,2013-01-22 08:40:00
3:53 AM,64.0,64.0,100,30.02,10.0,WNW,8.1,-,N/A,,Mostly Cloudy,300,2013-01-22 08:53:00
4:53 AM,63.0,62.1,97,30.02,10.0,NW,6.9,-,N/A,,Scattered Clouds,320,2013-01-22 09:53:00
5:53 AM,63.0,61.0,93,30.05,10.0,NW,8.1,-,N/A,,Scattered Clouds,320,2013-01-22 10:53:00
6:07 AM,62.6,60.8,94,30.05,10.0,NW,9.2,-,N/A,,Mostly Cloudy,310,2013-01-22 11:07:00
6:17 AM,62.6,60.8,94,30.05,10.0,NW,11.5,-,N/A,,Scattered Clouds,320,2013-01-22 11:17:00
6:53 AM,63.0,61.0,93,30.06,10.0,NW,11.5,-,N/A,,Clear,310,2013-01-22 11:53:00
7:53 AM,63.0,61.0,93,30.09,10.0,NW,9.2,-,N/A,,Clear,320,2013-01-22 12:53:00
8:53 AM,64.9,60.1,84,30.11,10.0,NNW,10.4,-,N/A,,Clear,330,2013-01-22 13:53:00
9:53 AM,69.1,59.0,70,30.13,10.0,North,13.8,-,N/A,,Clear,350,2013-01-22 14:53:00
10:53 AM,72.0,59.0,64,30.14,10.0,North,11.5,-,N/A,,Clear,350,2013-01-22 15:53:00
11:53 AM,73.0,59.0,61,30.13,10.0,North,11.5,-,N/A,,Mostly Cloudy,350,2013-01-22 16:53:00
12:53 PM,75.0,59.0,57,30.11,10.0,North,12.7,26.5,N/A,,Scattered Clouds,10,2013-01-22 17:53:00
1:53 PM,73.9,57.0,55,30.09,10.0,North,12.7,21.9,N/A,,Overcast,350,2013-01-22 18:53:00
2:53 PM,73.9,57.0,55,30.10,10.0,North,15.0,21.9,N/A,,Scattered Clouds,360,2013-01-22 19:53:00
3:53 PM,73.9,57.0,55,30.12,10.0,North,18.4,24.2,N/A,,Partly Cloudy,10,2013-01-22 20:53:00
4:53 PM,71.1,55.9,59,30.13,10.0,North,15.0,-,N/A,,Clear,350,2013-01-22 21:53:00
5:53 PM,71.1,55.9,59,30.15,10.0,North,12.7,20.7,N/A,,Mostly Cloudy,10,2013-01-22 22:53:00
6:53 PM,70.0,55.0,59,30.16,10.0,NNE,17.3,23.0,N/A,,Overcast,30,2013-01-22 23:53:00
7:53 PM,69.1,54.0,58,30.18,10.0,NNE,17.3,27.6,N/A,,Mostly Cloudy,30,2013-01-23 00:53:00
8:53 PM,69.1,52.0,54,30.19,10.0,NE,18.4,-,N/A,,Mostly Cloudy,40,2013-01-23 01:53:00
9:53 PM,69.1,51.1,53,30.22,10.0,NE,17.3,-,N/A,,Partly Cloudy,40,2013-01-23 02:53:00
10:53 PM,69.1,53.1,57,30.22,10.0,NE,11.5,21.9,N/A,,Scattered Clouds,40,2013-01-23 03:53:00
11:53 PM,69.1,53.1,57,30.21,10.0,NNE,16.1,24.2,N/A,,Scattered Clouds,30,2013-01-23 04:53:00